XMC weather

Mallacoota Airport
Victoria, Australia

Public forecast

Using degrees Celsius for public forecast. Weather courtesy of forecast.io.

Closest aviation weather report (METAR) to Mallacoota Airport

Closest report is Merimbula Airport, 42.3 nm (78.3 km) NNE. Retrieved 2019/10/19 14:00 UTC (16 minutes ago):

YMER 191400Z AUTO 21004KT 9999 // NCD 06/03 Q1019

Closest aviation forecast (TAF) to Mallacoota Airport

Closest forecast is Canberra International Airport, 139.9 nm (259.1 km) N. Retrieved 2019/10/19 12:00 UTC (2 hours ago):

TAF YSCB 191117Z 1912/2012 27007KT CAVOK FM191600 VRB03KT CAVOK FM200000 30010KT CAVOK FM200900 10008KT CAVOK